Carlyle, Canada
Current Conditions -  °F | °C
As of 9:00 PM on Monday 20 Oct 2014 (Local Time) from CYEN Reporting Station
Clear Clear  
Wind Chill: 50°   Ceiling: Unl
Heat Index: 50°   Visibility: 15mi
Dew Point: 41°   Wind: 9mph
Humidity: 71%   Direction: 120°ESE
Pressure: 29.81"   Gusts: NA
Location:  49.63°N, 102.27°W
Report Text: CYEN 210300Z 12008KT 15SM SKC 10/05 A2981 RMK SLP109
Loading
Personal Weather Stations






























Interactive Weather Map
Tropical Storm Tracking
New forecast layout! Learn more

10-Day Weather Forecast

Advertisements
Track Severe Weather on mobile